19 | 01 | 2019

Daten Vortag

Wetterdaten von 10m Höhe gemessen, Station 2

Datum / Zeit Intervall min Luftfeuchte % Temperatur °C absolut Luftdruck hPa Wind m/s Windbö m/s Richtung Relative Luftdruck hPa Taupunkt °C Windchill °C Niederschlag mm
18-01-2019 00:13 5 69 1.3 1001.0 18.4 27.0 NW 1004.2 -3.8 -6.9 0.0
18-01-2019 00:18 5 68 1.4 1001.1 18.4 23.4 NNW 1004.3 -3.9 -6.8 0.0
18-01-2019 00:23 5 67 1.4 1001.2 17.3 29.5 NW 1004.4 -4.1 -6.4 0.0
18-01-2019 00:28 5 67 1.4 1001.3 14.8 20.9 NW 1004.5 -4.1 -5.2 0.0
18-01-2019 00:33 5 67 1.3 1001.4 14.8 17.3 NW 1004.6 -4.2 -5.3 0.0
18-01-2019 00:38 5 68 1.3 1001.6 12.2 14.8 N 1004.8 -4.0 -3.9 0.0
18-01-2019 00:43 5 69 1.3 1001.6 9.7 14.8 NW 1004.8 -3.8 -2.3 0.0
18-01-2019 00:48 5 69 1.2 1001.8 18.4 23.4 N 1005.0 -3.9 -7.1 0.0
18-01-2019 00:53 5 70 1.1 1001.9 12.2 17.3 N 1005.1 -3.8 -4.1 0.0
18-01-2019 00:58 5 70 1.0 1002.0 13.3 17.3 NWW 1005.2 -3.9 -4.9 0.0
18-01-2019 01:03 5 71 0.9 1002.2 13.3 15.8 NW 1005.4 -3.8 -5.0 0.0
18-01-2019 01:08 5 69 1.0 1002.1 9.7 12.2 NW 1005.3 -4.0 -2.6 0.0
18-01-2019 01:13 5 70 0.9 1002.2 17.3 22.0 NW 1005.4 -4.0 -7.0 0.0
18-01-2019 01:18 5 67 1.0 1002.3 12.2 17.3 N 1005.5 -4.4 -4.3 0.0
18-01-2019 01:23 5 67 1.0 1002.4 13.3 20.9 NW 1005.6 -4.4 -4.9 0.0
18-01-2019 01:28 5 67 1.0 1002.3 11.2 15.8 NW 1005.5 -4.4 -3.6 0.0
18-01-2019 01:33 5 69 0.9 1002.4 18.4 27.0 N 1005.6 -4.1 -7.5 0.0
18-01-2019 01:38 5 70 0.9 1002.5 12.2 15.8 NW 1005.7 -4.0 -4.4 0.0
18-01-2019 01:43 5 70 0.9 1002.7 15.8 19.4 N 1005.9 -4.0 -6.3 0.0
18-01-2019 01:48 5 70 0.8 1002.6 18.4 40.3 N 1005.8 -4.0 -7.6 0.0
18-01-2019 01:53 5 69 0.7 1002.8 19.4 27.0 NWW 1006.0 -4.3 -8.1 0.0
18-01-2019 01:58 5 68 0.5 1003.1 12.2 18.4 NWW 1006.3 -4.7 -4.8 0.0
18-01-2019 02:03 5 67 0.4 1003.0 20.9 27.0 N 1006.2 -5.0 -9.1 0.0
18-01-2019 02:08 5 66 0.4 1003.2 20.9 31.7 N 1006.4 -5.2 -9.1 0.0
18-01-2019 02:13 5 65 0.3 1003.2 19.4 25.6 N 1006.4 -5.5 -8.7 0.0
18-01-2019 02:18 5 65 0.2 1003.3 22.0 31.7 N 1006.5 -5.6 -9.7 0.0
18-01-2019 02:23 5 64 0.2 1003.6 23.4 27.0 N 1006.8 -5.8 -10.2 0.0
18-01-2019 02:28 5 63 0.2 1003.6 18.4 25.6 N 1006.8 -6.0 -8.3 0.0
18-01-2019 02:33 5 64 0.1 1003.7 25.6 34.2 NW 1006.9 -5.9 -11.0 0.0
18-01-2019 02:38 5 64 0.1 1003.9 28.1 33.1 N 1007.1 -5.9 -11.8 0.0
18-01-2019 02:43 5 64 0.1 1003.9 24.5 34.2 N 1007.1 -5.9 -10.7 0.0
18-01-2019 02:48 5 64 0.1 1004.2 20.9 23.4 N 1007.4 -5.9 -9.5 0.0
18-01-2019 02:53 5 65 -0.1 1004.5 22.0 28.1 N 1007.7 -5.9 -10.1 0.0
18-01-2019 02:58 5 64 -0.2 1004.5 15.8 20.9 NNW 1007.7 -6.2 -7.7 0.0
18-01-2019 03:03 5 64 -0.2 1004.7 19.4 25.6 NW 1007.9 -6.2 -9.3 0.0
18-01-2019 03:08 5 64 -0.2 1004.7 23.4 30.6 N 1007.9 -6.2 -10.8 0.0
18-01-2019 03:13 5 64 -0.3 1004.8 13.3 19.4 N 1008.0 -6.3 -6.4 0.0
18-01-2019 03:18 5 64 -0.3 1005.0 15.8 19.4 NW 1008.2 -6.3 -7.8 0.0
18-01-2019 03:23 5 64 -0.3 1004.9 17.3 20.9 N 1008.1 -6.3 -8.5 0.0
18-01-2019 03:28 5 64 -0.3 1005.0 19.4 25.6 NW 1008.2 -6.3 -9.4 0.0
18-01-2019 03:33 5 64 -0.2 1005.1 14.8 22.0 NW 1008.3 -6.2 -7.1 0.0
18-01-2019 03:38 5 64 -0.1 1005.3 22.0 25.6 N 1008.5 -6.1 -10.1 0.0
18-01-2019 03:43 5 64 -0.1 1005.4 15.8 18.4 NW 1008.6 -6.1 -7.5 0.0
18-01-2019 03:48 5 64 -0.2 1005.5 18.4 24.5 N 1008.7 -6.2 -8.8 0.0
18-01-2019 03:53 5 64 -0.2 1005.7 11.2 24.5 NW 1008.9 -6.2 -5.0 0.0
18-01-2019 03:58 5 64 -0.1 1005.7 22.0 29.5 NWW 1008.9 -6.1 -10.1 0.0
18-01-2019 04:03 5 64 -0.1 1005.8 15.8 18.4 N 1009.0 -6.1 -7.5 0.0
18-01-2019 04:08 5 64 -0.1 1005.9 18.4 22.0 NW 1009.1 -6.1 -8.7 0.0
18-01-2019 04:13 5 63 0.0 1006.0 13.3 17.3 NW 1009.2 -6.2 -6.1 0.0
18-01-2019 04:18 5 65 -0.1 1006.1 11.2 13.3 NW 1009.3 -5.9 -4.8 0.0
18-01-2019 04:23 5 65 -0.1 1006.2 12.2 15.8 NW 1009.4 -5.9 -5.5 0.0
18-01-2019 04:28 5 66 -0.2 1006.2 12.2 15.8 NW 1009.4 -5.8 -5.7 0.0
18-01-2019 04:33 5 66 -0.2 1006.3 7.2 9.7 NWW 1009.5 -5.8 -1.8 0.0
18-01-2019 04:38 5 67 -0.4 1006.4 12.2 14.8 NNW 1009.6 -5.8 -5.9 0.0
18-01-2019 04:43 5 67 -0.3 1006.3 12.2 13.3 NW 1009.5 -5.7 -5.8 0.0
18-01-2019 04:48 5 68 -0.2 1006.4 9.7 13.3 NW 1009.6 -5.4 -3.9 0.0
18-01-2019 04:53 5 68 -0.5 1006.5 8.6 12.2 NW 1009.7 -5.7 -3.4 0.0
18-01-2019 04:58 5 69 -0.6 1006.5 9.7 12.2 NNW 1009.7 -5.6 -4.4 0.0
18-01-2019 05:03 5 70 -0.7 1006.5 5.0 7.2 NW 1009.7 -5.5 -0.7 0.0
18-01-2019 05:08 5 70 -0.7 1006.6 7.2 9.7 NW 1009.8 -5.5 -2.3 0.0
18-01-2019 05:13 5 71 -0.8 1006.7 6.1 7.2 NNW 1009.9 -5.4 -0.8 0.0
18-01-2019 05:18 5 72 -0.9 1006.8 7.2 8.6 NW 1010.0 -5.3 -2.6 0.0
18-01-2019 05:23 5 73 -1.1 1006.8 3.6 5.0 NW 1010.0 -5.3 -1.1 0.0
18-01-2019 05:28 5 74 -1.2 1006.9 5.0 6.1 NW 1010.1 -5.2 -1.2 0.0
18-01-2019 05:33 5 75 -1.5 1007.0 6.1 7.2 W 1010.2 -5.4 -1.5 0.0
18-01-2019 05:38 5 75 -1.6 1007.2 5.0 7.2 W 1010.4 -5.5 -1.6 0.0
18-01-2019 05:43 5 76 -1.7 1007.2 6.1 7.2 W 1010.4 -5.4 -1.7 0.0
18-01-2019 05:48 5 77 -1.7 1007.1 5.0 6.1 W 1010.3 -5.2 -1.7 0.0
18-01-2019 05:53 5 77 -1.6 1007.2 6.1 8.6 NW 1010.4 -5.1 -1.6 0.0
18-01-2019 05:58 5 77 -1.5 1007.4 6.1 7.2 W 1010.6 -5.0 -1.5 0.0
18-01-2019 06:03 5 77 -1.6 1007.4 5.0 6.1 W 1010.6 -5.1 -1.6 0.0
18-01-2019 06:08 5 77 -1.5 1007.3 6.1 6.1 W 1010.5 -5.0 -1.5 0.0
18-01-2019 06:13 5 77 -1.6 1007.4 3.6 6.1 NW 1010.6 -5.1 -1.6 0.0
18-01-2019 06:18 5 77 -1.7 1007.5 5.0 6.1 NWW 1010.7 -5.2 -1.7 0.0
18-01-2019 06:23 5 78 -1.8 1007.7 5.0 6.1 NW 1010.9 -5.1 -1.8 0.0
18-01-2019 06:28 5 78 -1.7 1007.8 3.6 5.0 NW 1011.0 -5.0 -1.7 0.0
18-01-2019 06:33 5 79 -1.6 1008.0 6.1 7.2 NW 1011.2 -4.8 -1.6 0.0
18-01-2019 06:38 5 79 -1.5 1008.1 5.0 6.1 NWW 1011.3 -4.7 -1.5 0.0
18-01-2019 06:43 5 79 -1.6 1008.2 5.0 6.1 W 1011.4 -4.8 -1.6 0.0
18-01-2019 06:48 5 80 -1.7 1008.4 7.2 8.6 W 1011.6 -4.7 -3.4 0.0
18-01-2019 06:53 5 80 -1.5 1008.6 9.7 11.2 NW 1011.8 -4.5 -5.4 0.0
18-01-2019 06:58 5 81 -1.3 1008.6 8.6 11.2 NW 1011.8 -4.1 -4.3 0.0
18-01-2019 07:03 5 81 -1.2 1008.7 11.2 14.8 W 1011.9 -4.0 -6.1 0.0
18-01-2019 07:08 5 81 -1.0 1008.9 13.3 14.8 W 1012.1 -3.8 -7.3 0.0
18-01-2019 07:13 5 80 -0.7 1009.0 12.2 14.8 W 1012.2 -3.7 -6.2 0.0
18-01-2019 07:18 5 80 -0.6 1009.0 13.3 15.8 NW 1012.2 -3.6 -6.8 0.0
18-01-2019 07:23 5 79 -0.5 1009.2 12.2 13.3 NW 1012.4 -3.7 -6.0 0.0
18-01-2019 07:28 5 78 -0.4 1009.3 11.2 13.3 NW 1012.5 -3.8 -5.2 0.0
18-01-2019 07:33 5 76 -0.4 1009.6 11.2 12.2 W 1012.8 -4.1 -5.2 0.0
18-01-2019 07:38 5 76 -0.4 1009.6 9.7 12.2 W 1012.8 -4.1 -4.2 0.0
18-01-2019 07:43 5 76 -0.4 1009.7 8.6 11.2 W 1012.9 -4.1 -3.3 0.0
18-01-2019 07:48 5 76 -0.4 1009.9 11.2 12.2 W 1013.1 -4.1 -5.2 0.0
18-01-2019 07:53 5 76 -0.4 1009.9 6.1 9.7 W 1013.1 -4.1 -0.4 0.0
18-01-2019 07:58 5 76 -0.4 1010.1 8.6 11.2 W 1013.3 -4.1 -3.3 0.0
18-01-2019 08:03 5 76 -0.4 1010.2 6.1 8.6 SW 1013.4 -4.1 -0.4 0.0
18-01-2019 08:08 5 76 -0.5 1010.3 6.1 8.6 W 1013.5 -4.2 -0.5 0.0
18-01-2019 08:13 5 76 -0.5 1010.4 11.2 13.3 W 1013.6 -4.2 -5.3 0.0
18-01-2019 08:18 5 77 -0.5 1010.5 9.7 12.2 SWW 1013.7 -4.0 -4.3 0.0
18-01-2019 08:23 5 77 -0.6 1010.5 8.6 11.2 W 1013.7 -4.1 -3.5 0.0
18-01-2019 08:28 5 77 -0.7 1010.8 8.6 11.2 W 1014.0 -4.2 -3.6 0.0
18-01-2019 08:33 5 78 -0.7 1010.7 9.7 11.2 W 1013.9 -4.1 -4.5 0.0
18-01-2019 08:38 5 79 -0.8 1010.8 7.2 9.7 SW 1014.0 -4.0 -2.5 0.0
18-01-2019 08:43 5 79 -0.8 1010.7 5.0 6.1 SW 1013.9 -4.0 -0.8 0.0
18-01-2019 08:48 5 80 -0.9 1010.9 9.7 12.2 W 1014.1 -3.9 -4.7 0.0
18-01-2019 08:53 5 80 -0.7 1010.9 6.1 9.7 SW 1014.1 -3.7 -0.7 0.0
18-01-2019 08:58 5 81 -0.6 1011.0 7.2 11.2 SWW 1014.2 -3.5 -2.2 0.0
18-01-2019 09:03 5 81 -0.5 1011.0 9.7 13.3 W 1014.2 -3.4 -4.3 0.0
18-01-2019 09:08 5 81 -0.5 1011.3 9.7 12.2 W 1014.5 -3.4 -4.3 0.0
18-01-2019 09:13 5 82 -0.5 1011.3 8.6 12.2 SW 1014.5 -3.2 -3.4 0.0
18-01-2019 09:18 5 82 -0.4 1011.2 7.2 11.2 SWW 1014.4 -3.1 -2.0 0.0
18-01-2019 09:23 5 83 -0.3 1011.3 8.6 12.2 SW 1014.5 -2.8 -3.2 0.0
18-01-2019 09:28 5 82 -0.2 1011.3 11.2 14.8 SW 1014.5 -2.9 -5.0 0.0
18-01-2019 09:33 5 82 -0.2 1011.3 11.2 14.8 SW 1014.5 -2.9 -5.0 0.0
18-01-2019 09:38 5 81 -0.2 1011.5 12.2 14.8 SW 1014.7 -3.1 -5.7 0.0
18-01-2019 09:43 5 81 -0.1 1011.5 11.2 12.2 NW 1014.7 -3.0 -4.8 0.0
18-01-2019 09:48 5 80 -0.2 1011.6 9.7 13.3 SW 1014.8 -3.2 -3.9 0.0
18-01-2019 09:53 5 80 -0.2 1011.7 11.2 13.3 W 1014.9 -3.2 -5.0 0.0
18-01-2019 09:58 5 79 -0.2 1011.7 17.3 23.4 SW 1014.9 -3.4 -8.4 0.0
18-01-2019 10:03 5 78 -0.2 1011.6 18.4 22.0 SW 1014.8 -3.6 -8.8 0.0
18-01-2019 10:08 5 78 -0.1 1011.7 12.2 18.4 SWW 1014.9 -3.5 -5.5 0.0
18-01-2019 10:13 5 77 -0.1 1011.8 13.3 17.3 W 1015.0 -3.6 -6.2 0.0
18-01-2019 10:18 5 77 -0.2 1011.8 17.3 20.9 SW 1015.0 -3.7 -8.4 0.0
18-01-2019 10:23 5 77 -0.5 1011.9 15.8 19.4 NW 1015.1 -4.0 -8.0 0.0
18-01-2019 10:28 5 77 -0.6 1011.8 14.8 17.3 W 1015.0 -4.1 -7.6 0.0
18-01-2019 10:33 5 77 -0.6 1011.8 17.3 22.0 SW 1015.0 -4.1 -8.9 0.0
18-01-2019 10:38 5 76 -0.6 1011.9 19.4 29.5 SWW 1015.1 -4.3 -9.8 0.0
18-01-2019 10:43 5 75 -0.4 1011.8 15.8 18.4 SW 1015.0 -4.3 -7.9 0.0
18-01-2019 10:48 5 75 -0.3 1011.9 17.3 20.9 W 1015.1 -4.2 -8.5 0.0
18-01-2019 10:53 5 73 0.1 1012.1 12.2 18.4 SWW 1015.3 -4.2 -5.3 0.0
18-01-2019 10:58 5 73 0.0 1012.1 18.4 22.0 SW 1015.3 -4.3 -8.6 0.0
18-01-2019 11:03 5 70 0.6 1012.0 12.2 14.8 SW 1015.2 -4.2 -4.7 0.0
18-01-2019 11:08 5 68 0.9 1012.2 17.3 20.9 SWW 1015.4 -4.3 -7.0 0.0
18-01-2019 11:13 5 66 0.9 1012.0 13.3 15.8 SW 1015.2 -4.7 -5.0 0.0
18-01-2019 11:18 5 65 1.1 1012.2 11.2 17.3 SW 1015.4 -4.7 -3.5 0.0
18-01-2019 11:23 5 65 1.2 1012.1 8.6 11.2 SWW 1015.3 -4.6 -1.6 0.0
18-01-2019 11:28 5 64 1.2 1012.1 15.8 23.4 SW 1015.3 -4.9 -6.0 0.0
18-01-2019 11:33 5 62 1.1 1012.1 19.4 24.5 NW 1015.3 -5.4 -7.6 0.0
18-01-2019 11:38 5 61 1.3 1012.1 12.2 15.8 SWW 1015.3 -5.4 -3.9 0.0
18-01-2019 11:43 5 60 1.4 1012.1 18.4 22.0 SWW 1015.3 -5.5 -6.8 0.0
18-01-2019 11:48 5 60 1.5 1012.1 13.3 18.4 SW 1015.3 -5.4 -4.3 0.0
18-01-2019 11:53 5 60 1.5 1012.1 17.3 23.4 NWW 1015.3 -5.4 -6.2 0.0
18-01-2019 11:58 5 60 1.5 1012.1 19.4 23.4 SW 1015.3 -5.4 -7.1 0.0
18-01-2019 12:03 5 60 1.6 1012.1 18.4 24.5 SW 1015.3 -5.3 -6.6 0.0
18-01-2019 12:08 5 62 1.7 1012.2 19.4 24.5 SW 1015.4 -4.8 -6.9 0.0
18-01-2019 12:13 5 62 1.8 1012.1 23.4 28.1 SWW 1015.3 -4.7 -8.1 0.0
18-01-2019 12:18 5 63 1.8 1012.3 22.0 29.5 SW 1015.5 -4.5 -7.7 0.0
18-01-2019 12:23 5 63 2.0 1012.3 20.9 25.6 SW 1015.5 -4.3 -7.0 0.0
18-01-2019 12:28 5 63 2.1 1012.3 14.8 23.4 SW 1015.5 -4.2 -4.3 0.0
18-01-2019 12:33 5 64 2.2 1012.3 18.4 22.0 SW 1015.5 -3.9 -5.8 0.0
18-01-2019 12:38 5 65 2.2 1012.2 20.9 27.0 SWW 1015.4 -3.7 -6.8 0.0
18-01-2019 12:43 5 65 2.2 1012.3 17.3 24.5 SW 1015.5 -3.7 -5.4 0.0
18-01-2019 12:48 5 65 2.3 1012.2 18.4 24.5 SWW 1015.4 -3.6 -5.7 0.0
18-01-2019 12:53 5 66 2.4 1012.3 20.9 24.5 SW 1015.5 -3.3 -6.5 0.0
18-01-2019 12:58 5 66 2.5 1012.4 15.8 19.4 W 1015.6 -3.2 -4.4 0.0
18-01-2019 13:03 5 66 2.6 1012.4 18.4 28.1 SW 1015.6 -3.1 -5.3 0.0
18-01-2019 13:08 5 67 2.7 1012.4 13.3 22.0 SW 1015.6 -2.8 -2.9 0.0
18-01-2019 13:13 5 67 2.9 1012.4 13.3 19.4 SWW 1015.6 -2.6 -2.6 0.0
18-01-2019 13:18 5 71 3.1 1012.5 13.3 15.8 W 1015.7 -1.6 -2.4 0.0
18-01-2019 13:23 5 71 3.3 1012.6 13.3 18.4 W 1015.8 -1.5 -2.2 0.0
18-01-2019 13:28 5 70 3.3 1012.7 18.4 24.5 W 1015.9 -1.6 -4.4 0.0
18-01-2019 13:33 5 71 3.5 1012.5 12.2 14.8 SW 1015.7 -1.3 -1.4 0.0
18-01-2019 13:38 5 71 3.4 1012.5 12.2 15.8 SW 1015.7 -1.4 -1.5 0.0
18-01-2019 13:43 5 71 3.4 1012.5 14.8 18.4 W 1015.7 -1.4 -2.8 0.0
18-01-2019 13:48 5 71 3.3 1012.5 19.4 25.6 SWW 1015.7 -1.5 -4.8 0.0
18-01-2019 13:53 5 71 3.1 1012.5 20.9 27.0 SWW 1015.7 -1.6 -5.6 0.0
18-01-2019 13:58 5 71 3.2 1012.6 22.0 25.6 SW 1015.8 -1.5 -5.8 0.0
18-01-2019 14:03 5 71 3.2 1012.5 14.8 18.4 SW 1015.7 -1.5 -3.0 0.0
18-01-2019 14:08 5 72 3.3 1012.6 12.2 17.3 SW 1015.8 -1.3 -1.6 0.0
18-01-2019 14:13 5 73 3.5 1012.7 14.8 18.4 SWW 1015.9 -0.9 -2.6 0.0
18-01-2019 14:18 5 73 3.5 1012.7 12.2 15.8 W 1015.9 -0.9 -1.4 0.0
18-01-2019 14:23 5 73 3.2 1012.6 20.9 28.1 NW 1015.8 -1.2 -5.5 0.0
18-01-2019 14:28 5 74 3.3 1012.7 19.4 23.4 W 1015.9 -0.9 -4.8 0.0
18-01-2019 14:33 5 74 3.2 1013.0 24.5 28.1 W 1016.2 -1.0 -6.6 0.0
18-01-2019 14:38 5 74 3.3 1012.9 30.6 33.1 W 1016.1 -0.9 -8.0 0.0
18-01-2019 14:43 5 74 3.0 1012.7 19.4 25.6 W 1015.9 -1.2 -5.2 0.0
18-01-2019 14:48 5 71 2.7 1012.8 25.6 29.5 W 1016.0 -2.0 -7.6 0.0
18-01-2019 14:53 5 72 2.5 1012.9 18.4 22.0 W 1016.1 -2.0 -5.4 0.0
18-01-2019 14:58 5 73 2.5 1013.0 15.8 18.4 W 1016.2 -1.8 -4.4 0.0
18-01-2019 15:03 5 73 2.6 1013.0 12.2 14.8 NW 1016.2 -1.7 -2.4 0.0
18-01-2019 15:08 5 74 2.7 1013.1 19.4 23.4 W 1016.3 -1.5 -5.6 0.0
18-01-2019 15:13 5 74 2.8 1013.1 22.0 24.5 NW 1016.3 -1.4 -6.3 0.0
18-01-2019 15:18 5 74 2.7 1013.1 18.4 22.0 W 1016.3 -1.5 -5.2 0.0
18-01-2019 15:23 5 74 2.7 1013.1 13.3 17.3 NW 1016.3 -1.5 -2.9 0.0
18-01-2019 15:28 5 74 2.8 1013.2 19.4 22.0 W 1016.4 -1.4 -5.5 0.0
18-01-2019 15:33 5 75 2.7 1013.0 18.4 23.4 SW 1016.2 -1.3 -5.2 0.0
18-01-2019 15:38 5 76 2.7 1013.1 19.4 24.5 W 1016.3 -1.1 -5.6 0.0
18-01-2019 15:43 5 76 2.5 1013.2 15.8 19.4 W 1016.4 -1.3 -4.4 0.0
18-01-2019 15:48 5 77 2.4 1013.2 15.8 19.4 NW 1016.4 -1.2 -4.5 0.0
18-01-2019 15:53 5 78 2.3 1013.3 11.2 15.8 NW 1016.5 -1.1 -2.1 0.0
18-01-2019 15:58 5 79 2.1 1013.3 19.4 24.5 SW 1016.5 -1.2 -6.4 0.0
18-01-2019 16:03 5 80 2.0 1013.3 17.3 19.4 W 1016.5 -1.1 -5.6 0.0
18-01-2019 16:08 5 80 2.0 1013.3 17.3 19.4 W 1016.5 -1.1 -5.6 0.0
18-01-2019 16:13 5 82 1.6 1013.4 12.2 17.3 W 1016.6 -1.1 -3.6 0.0
18-01-2019 16:18 5 83 1.5 1013.5 13.3 15.8 W 1016.7 -1.1 -4.3 0.0
18-01-2019 16:23 5 83 1.4 1013.4 13.3 15.8 SWW 1016.6 -1.2 -4.4 0.0
18-01-2019 16:28 5 84 1.3 1013.6 14.8 18.4 SW 1016.8 -1.1 -5.3 0.0
18-01-2019 16:33 5 84 1.3 1013.5 12.2 18.4 W 1016.7 -1.1 -3.9 0.0
18-01-2019 16:38 5 84 1.2 1013.6 17.3 18.4 SWW 1016.8 -1.2 -6.6 0.0
18-01-2019 16:43 5 85 1.1 1013.7 12.2 14.8 W 1016.9 -1.1 -4.1 0.0
18-01-2019 16:48 5 85 1.1 1013.7 13.3 19.4 W 1016.9 -1.1 -4.8 0.0
18-01-2019 16:53 5 85 1.0 1013.8 14.8 19.4 W 1017.0 -1.2 -5.7 0.0
18-01-2019 16:58 5 86 1.0 1013.8 11.2 15.8 SWW 1017.0 -1.1 -3.6 0.0
18-01-2019 17:03 5 86 1.0 1013.8 17.3 20.9 W 1017.0 -1.1 -6.9 0.0
18-01-2019 17:08 5 86 1.0 1013.9 17.3 19.4 W 1017.1 -1.1 -6.9 0.0
18-01-2019 17:13 5 86 1.0 1013.9 20.9 28.1 NW 1017.1 -1.1 -8.3 0.0
18-01-2019 17:18 5 87 1.0 1013.9 12.2 18.4 W 1017.1 -0.9 -4.3 0.0
18-01-2019 17:23 5 87 0.9 1013.9 15.8 18.4 W 1017.1 -1.0 -6.3 0.0
18-01-2019 17:28 5 88 0.9 1014.0 15.8 20.9 NW 1017.2 -0.9 -6.3 0.0
18-01-2019 17:33 5 88 0.9 1013.9 15.8 20.9 NW 1017.1 -0.9 -6.3 0.0
18-01-2019 17:38 5 88 0.9 1013.9 14.8 17.3 W 1017.1 -0.9 -5.8 0.0
18-01-2019 17:43 5 88 0.9 1013.9 14.8 17.3 W 1017.1 -0.9 -5.8 0.0
18-01-2019 17:48 5 88 0.9 1014.0 14.8 19.4 NW 1017.2 -0.9 -5.8 0.0
18-01-2019 17:53 5 87 1.0 1014.1 13.3 17.3 SWW 1017.3 -0.9 -4.9 0.0
18-01-2019 17:58 5 88 0.9 1014.1 13.3 17.3 W 1017.3 -0.9 -5.0 0.0
18-01-2019 18:03 5 87 0.9 1014.1 8.6 11.2 SWW 1017.3 -1.0 -1.9 0.0
18-01-2019 18:08 5 87 0.7 1014.1 8.6 12.2 SWW 1017.3 -1.2 -2.1 0.0
18-01-2019 18:13 5 87 0.6 1014.1 9.7 13.3 SWW 1017.3 -1.3 -3.0 0.0
18-01-2019 18:18 5 88 0.6 1014.1 8.6 11.2 SW 1017.3 -1.2 -2.2 0.0
18-01-2019 18:23 5 88 0.6 1014.2 8.6 11.2 W 1017.4 -1.2 -2.2 0.0
18-01-2019 18:28 5 88 0.6 1014.2 14.8 18.4 W 1017.4 -1.2 -6.1 0.0
18-01-2019 18:33 5 88 0.6 1014.3 14.8 20.9 W 1017.5 -1.2 -6.1 0.0
18-01-2019 18:38 5 88 0.6 1014.2 13.3 15.8 W 1017.4 -1.2 -5.4 0.0
18-01-2019 18:43 5 88 0.6 1014.4 19.4 23.4 W 1017.6 -1.2 -8.3 0.0
18-01-2019 18:48 5 88 0.6 1014.3 15.8 18.4 W 1017.5 -1.2 -6.7 0.0
18-01-2019 18:53 5 88 0.5 1014.4 11.2 12.2 NW 1017.6 -1.3 -4.2 0.0
18-01-2019 18:58 5 89 0.6 1014.4 9.7 12.2 W 1017.6 -1.0 -3.0 0.0
18-01-2019 19:03 5 89 0.6 1014.3 7.2 11.2 SW 1017.5 -1.0 -1.0 0.0
18-01-2019 19:08 5 89 0.5 1014.5 8.6 12.2 W 1017.7 -1.1 -2.3 0.0
18-01-2019 19:13 5 89 0.5 1014.5 7.2 9.7 W 1017.7 -1.1 -1.1 0.0
18-01-2019 19:18 5 89 0.5 1014.5 6.1 8.6 SW 1017.7 -1.1 0.5 0.0
18-01-2019 19:23 5 89 0.4 1014.6 7.2 8.6 SW 1017.8 -1.2 -1.2 0.0
18-01-2019 19:28 5 89 0.3 1014.7 9.7 12.2 SW 1017.9 -1.3 -3.4 0.0
18-01-2019 19:33 5 89 0.3 1014.7 8.6 11.2 SW 1017.9 -1.3 -2.5 0.0
18-01-2019 19:38 5 89 0.2 1014.8 11.2 15.8 SW 1018.0 -1.4 -4.5 0.0
18-01-2019 19:43 5 89 0.1 1014.6 12.2 14.8 SW 1017.8 -1.5 -5.3 0.0
18-01-2019 19:48 5 89 0.1 1014.7 12.2 15.8 SW 1017.9 -1.5 -5.3 0.0
18-01-2019 19:53 5 90 0.2 1014.6 11.2 13.3 SW 1017.8 -1.2 -4.5 0.0
18-01-2019 19:58 5 90 0.2 1014.7 9.7 14.8 SWW 1017.9 -1.2 -3.5 0.0
18-01-2019 20:03 5 90 0.3 1014.8 12.2 15.8 --- 1018.0 -1.1 -5.1 0.0
18-01-2019 20:08 5 90 0.4 1014.9 11.2 12.2 SW 1018.1 -1.0 -4.3 0.0
18-01-2019 20:13 5 90 0.4 1014.8 15.8 19.4 SW 1018.0 -1.0 -6.9 0.0
18-01-2019 20:18 5 91 0.5 1014.8 19.4 24.5 SW 1018.0 -0.8 -8.4 0.0
18-01-2019 20:23 5 91 0.6 1015.0 15.8 20.9 W 1018.2 -0.7 -6.7 0.0
18-01-2019 20:28 5 91 0.7 1015.0 15.8 18.4 W 1018.2 -0.6 -6.6 0.0
18-01-2019 20:33 5 91 0.8 1015.0 19.4 27.0 NW 1018.2 -0.5 -8.0 0.0
18-01-2019 20:38 5 91 0.8 1015.1 14.8 17.3 W 1018.3 -0.5 -5.9 0.0
18-01-2019 20:43 5 90 0.7 1015.0 14.8 19.4 SWW 1018.2 -0.8 -6.0 0.0
18-01-2019 20:48 5 90 0.8 1015.0 17.3 23.4 NW 1018.2 -0.7 -7.1 0.0
18-01-2019 20:53 5 91 0.8 1015.1 9.7 11.2 W 1018.3 -0.5 -2.8 0.0
18-01-2019 20:58 5 91 0.8 1015.3 9.7 14.8 W 1018.5 -0.5 -2.8 0.0
18-01-2019 21:03 5 91 0.8 1015.2 12.2 14.8 W 1018.4 -0.5 -4.5 0.0
18-01-2019 21:08 5 91 0.7 1015.3 12.2 14.8 W 1018.5 -0.6 -4.6 0.0
18-01-2019 21:13 5 91 0.7 1015.3 13.3 15.8 NW 1018.5 -0.6 -5.2 0.0
18-01-2019 21:18 5 91 0.7 1015.4 12.2 15.8 W 1018.6 -0.6 -4.6 0.0
18-01-2019 21:23 5 91 0.7 1015.4 13.3 15.8 W 1018.6 -0.6 -5.2 0.0
18-01-2019 21:28 5 91 0.7 1015.5 13.3 15.8 NW 1018.7 -0.6 -5.2 0.0
18-01-2019 21:33 5 91 0.6 1015.5 13.3 15.8 W 1018.7 -0.7 -5.4 0.0
18-01-2019 21:38 5 91 0.6 1015.5 15.8 20.9 W 1018.7 -0.7 -6.7 0.0
18-01-2019 21:43 5 91 0.6 1015.6 13.3 15.8 W 1018.8 -0.7 -5.4 0.0
18-01-2019 21:48 5 90 0.6 1015.6 13.3 15.8 W 1018.8 -0.9 -5.4 0.0
18-01-2019 21:53 5 90 0.6 1015.7 7.2 9.7 W 1018.9 -0.9 -1.0 0.0
18-01-2019 21:58 5 90 0.6 1015.8 13.3 17.3 W 1019.0 -0.9 -5.4 0.0
18-01-2019 22:03 5 90 0.5 1015.8 13.3 18.4 SWW 1019.0 -0.9 -5.5 0.0
18-01-2019 22:08 5 90 0.5 1015.7 15.8 22.0 NNW 1018.9 -0.9 -6.8 0.0
18-01-2019 22:13 5 91 0.6 1015.7 13.3 14.8 W 1018.9 -0.7 -5.4 0.0
18-01-2019 22:18 5 91 0.6 1015.7 11.2 15.8 W 1018.9 -0.7 -4.0 0.0
18-01-2019 22:23 5 91 0.5 1015.7 13.3 20.9 SWW 1018.9 -0.8 -5.5 0.0
18-01-2019 22:28 5 91 0.6 1015.8 13.3 17.3 W 1019.0 -0.7 -5.4 0.0
18-01-2019 22:33 5 91 0.6 1015.9 15.8 20.9 SWW 1019.1 -0.7 -6.7 0.0
18-01-2019 22:38 5 91 0.5 1015.8 19.4 24.5 W 1019.0 -0.8 -8.4 0.0
18-01-2019 22:43 5 91 0.5 1016.0 12.2 15.8 W 1019.2 -0.8 -4.8 0.0
18-01-2019 22:48 5 91 0.5 1016.0 12.2 18.4 W 1019.2 -0.8 -4.8 0.0
18-01-2019 22:53 5 91 0.5 1016.2 9.7 12.2 SW 1019.4 -0.8 -3.2 0.0
18-01-2019 22:58 5 91 0.6 1016.1 11.2 15.8 W 1019.3 -0.7 -4.0 0.0
18-01-2019 23:03 5 91 0.6 1016.0 11.2 15.8 SW 1019.2 -0.7 -4.0 0.0
18-01-2019 23:08 5 91 0.7 1015.9 8.6 9.7 SW 1019.1 -0.6 -2.1 0.0
18-01-2019 23:13 5 91 0.7 1016.0 7.2 11.2 SWW 1019.2 -0.6 -0.9 0.0
18-01-2019 23:18 5 91 0.7 1015.9 7.2 12.2 NW 1019.1 -0.6 -0.9 0.0
18-01-2019 23:23 5 91 0.8 1016.1 12.2 14.8 SW 1019.3 -0.5 -4.5 0.0
18-01-2019 23:28 5 91 0.8 1016.0 12.2 17.3 W 1019.2 -0.5 -4.5 0.0
18-01-2019 23:33 5 91 0.8 1016.0 12.2 14.8 SWW 1019.2 -0.5 -4.5 0.0
18-01-2019 23:38 5 91 0.9 1016.0 13.3 14.8 W 1019.2 -0.4 -5.0 0.0
18-01-2019 23:43 5 91 0.9 1016.1 12.2 15.8 NW 1019.3 -0.4 -4.4 0.0
18-01-2019 23:48 5 90 0.9 1016.1 14.8 17.3 NW 1019.3 -0.6 -5.8 0.0
18-01-2019 23:53 5 90 0.9 1016.1 12.2 15.8 W 1019.3 -0.6 -4.4 0.0
18-01-2019 23:58 5 90 0.9 1016.1 14.8 17.3 W 1019.3 -0.6 -5.8 0.0

                                                                Tabelle: 07 : 00 UHR

STATIONHÖHELUFTD.TEMP.T-MinT-MaxU%RR1RR12SSSDDFFFXWetter+WolkenBöen
UFS TW Ems 0 ------ --- --- --- --- ---- --- --- -- --- --- --- ---
UFS Deutsche Bucht 0 1014.3 4.1 1.1 5.7 77 ---- --- --- W 14 --- --- ---
Helgoland 4 1014.5 2.1 1.5 4.7 86 0.4 0 0 -- --- --- leichter Regen ---
List/Sylt 26 1012.6 2.9 -1.0 3.1 69 0.0 0 0 NW 24 31 wolkenlos ---
Schleswig 43 1013.3 -2.9 -4.3 0.2 80 0.0 1 1 SW 9 15 gering bewölkt ---
Leuchtturm Kiel 5 1012.9 -0.8 -1.0 2.1 81 ---- --- --- W 25 28 --- ---
Kiel 27 1013.4 -3.8 -6.3 0.9 87 0.0 0 1 SW 7 15 wolkenlos ---
Fehmarn 3 1012.7 1.2 0.3 2.5 65 0.0 0 0 NW 14 24 wolkenlos ---
Arkona 42 1010.6 0.0 -0.9 2.2 72 0.0 0 0 NW 23 34 --- ---
Norderney 11 1015.1 3.6 1.2 5.3 81 0.0 0 0 N 29 36 --- ---
Leuchtt. Alte Weser 32 1014.1 5.1 1.0 5.0 61 ---- --- --- NW 22 --- --- ---
Cuxhaven 5 1014.4 0.3 0.2 3.1 87 0.0 0 0 SW 13 17 --- ---
Hamburg-Flh. 11 1014.7 -5.4 -6.0 2.7 96 0.0 3 4 - 0 9 wolkenlos ---
Schwerin 59 1013.9 -3.2 -3.2 3.2 90 0.0 4 2 W 13 28 wolkenlos ---
Rostock 4 1012.2 1.6 -0.2 2.7 75 0.0 0 0 NW 26 36 --- ---
Greifswald 2 1011.3 -1.1 -1.1 4.8 78 0.0 0 0 NW 10 28 bewölkt ---
Emden 0 1015.6 0.2 -1.5 4.0 77 0.0 0 0 W 9 16   ---
Bremen-Flh. 5 1015.9 -2.6 -3.6 2.0 98 0.0 2 1 S 4 5 gering bewölkt ---
Lüchow 17 1014.9 -2.0 -2.0 3.2 85 0.0 0 0 W 7 21 wolkenlos ---
Marnitz 81 1013.5 -3.8 -5.2 2.8 91 0.0 5 5 NW 15 21 --- ---
Waren 70 1012.5 -1.6 -1.7 3.3 73 0.0 1 0 NW 10 20 wolkenlos ---
Neuruppin 38 1012.7 -1.7 -1.7 3.9 77 0.0 1 --- NW 13 25 --- ---
Angermünde 56 1010.9 -2.0 -2.0 4.5 89 0.0 4 2 W 15 26 --- ---
Münster/Osnabr.-Flh. 48 1017.9 -2.5 -3.3 1.6 97 0.0 0 0 SW 7 9 Nebel ---
Hannover-Flh. 59 1016.4 -2.3 -3.5 2.3 95 0.0 0 0 W 7 17 gering bewölkt ---
Magdeburg 76 ------ --- --- --- --- ---- --- --- -- --- --- --- ---
Potsdam 81 1012.5 -0.9 -1.0 2.7 76 0.2 2 0 NW 22 43 Schneefall ---
Berlin-Tegel 37 1012.2 -0.6 -1.4 4.1 77 0.1 1 1 NW 12 35 Schneefall ---
Berlin-Tempelhof 48 1012.3 -0.4 -0.8 3.7 75 0.0 2 --- NW 19 37 --- ---
Berlin-Dahlem 51 1012.3 -0.7 -0.9 3.4 --- ---- 1 0 NW 14 --- leichter Regen ---
Lindenberg 91 1011.5 -0.9 -1.3 5.3 90 0.0 2 1 NW 14 30 Hagelschauer ---
Düsseldorf-Flh. 45 1018.8 -2.9 -3.6 2.4 99 0.0 0 0 SW 3 9 Dunst oder flacher Nebel ---
Essen 150 1018.8 -1.8 -2.1 1.8 99 0.0 0 0 -- 6 9 Nebel ---
Kahler Asten 839 ------ -6.3 -6.3 -3.1 88 0.0 3 27 NW 19 27 wolkenlos ---
Bad Lippspringe 157 1017.7 -1.2 -1.3 1.1 93 0.0 1 0 NW 6 16 --- ---
Fritzlar 174 1018.0 -2.3 -2.6 2.5 87 ---- 0 1 NW 7 --- gering bewölkt ---
Brocken 1142 ------ -8.6 -8.6 -4.2 94 ---- 9 145 NW 49 69 gefrierender Nebel Sturmböen
Leipzig-Flh. 142 1014.7 -0.3 -0.7 3.5 86 0.2 0 0 NW 21 38 Schneefall ---
Dresden-Flh. 227 1013.2 -1.1 -1.1 5.2 85 0.5 1 1 NW 25 43 Schneeschauer ---
Cottbus 69 1011.6 -0.5 -0.7 5.7 83 0.0 0 0 W 13 32 Schneefall ---
Görlitz 238 1011.0 0.1 0.1 4.6 82 0.0 0 0 NW 21 40 Schneegriesel ---
Aachen 231 1019.2 -0.2 -0.3 1.3 98 0.0 1 0 W 7 14 Dunst oder flacher Nebel ---
Nürburg 485 1019.4 -2.2 -2.2 -0.7 91 0.0 0 0 W 6 12 Schneegriesel ---
Köln/Bonn-Flh. 92 1018.8 0.3 0.3 2.7 90 0.0 0 0 W 5 15 stark bewölkt ---
Gießen/Wettenberg 203 1018.1 -0.5 -1.5 2.8 87 0.0 0 0 W 10 16 --- ---
Wasserkuppe 921 ------ -5.2 -5.2 -2.1 96 0.2 5 35 N 32 49 gefrierender Nebel ---
Meiningen 450 1016.8 -1.3 -1.9 1.6 76 0.0 1 2 NW 19 33 Schneefall ---
Erfurt 316 1016.7 -2.5 -2.6 2.2 78 0.0 0 0 NW 16 31 gering bewölkt ---
Gera 311 1015.1 -1.0 -1.2 1.8 89 0.5 1 1 NW 15 31 Glatteisbildung ---
Fichtelberg 1213 ------ -6.9 -6.9 -2.4 93 ---- --- --- W 55 78 gefrierender Nebel Sturmböen
Trier 265 1019.4 -1.5 -1.5 1.9 95 0.0 0 0 SW 6 13 --- ---
Hahn-Flh. 497 1019.2 -2.1 -2.5 0.2 97 0.0 0 0 W 9 17 --- ---
Frankfurt/M-Flh. 112 1018.3 0.9 0.8 3.0 84 0.0 0 0 W 12 32 Schneefall ---
OF-Wetterpark 119 1018.1 0.5 0.4 3.5 82 0.0 0 0 S 2 11 --- ---
Würzburg 268 1018.1 0.0 0.0 2.6 87 0.0 1 1 NW 17 32 leichter Schneefall ---
Bamberg 239 1016.8 0.8 -0.3 2.5 74 0.0 1 0 W 17 29 Schneefall ---
Hof 567 1015.4 -2.2 -2.3 2.4 89 0.0 4 5 W 15 30 leichter Schneefall ---
Weiden 438 1015.8 -0.6 -1.0 3.9 81 0.0 0 0 W 16 31 leichter Schneefall ---
Saarbrücken-Flh. 320 1019.5 -1.0 -1.1 1.8 89 0.0 0 0 W 10 21 gering bewölkt ---
Karlsruhe-Rheinst. 116 1019.5 1.5 1.2 4.2 81 0.0 0 0 SW 15 31 Niederschlag ---
Mannheim 96 1018.6 2.1 1.9 4.7 78 0.0 0 0 W 13 22 --- ---
Stuttgart-Flh. 371 1019.2 -0.3 -1.0 3.1 83 0.0 1 0 W 18 27 bedeckt ---
Öhringen 276 1018.6 0.3 0.3 4.0 85 0.0 1 0 W 14 23 Schneefall ---
Nürnberg-Flh. 314 1017.1 0.4 0.2 4.6 81 0.0 1 0 W 15 33 stark bewölkt ---
Regensburg 366 1016.7 0.1 -0.6 4.9 80 0.0 0 0 W 16 33 Schneefall ---
Straubing 351 1016.5 0.7 0.0 4.6 77 0.0 3 1 W 15 29 Schneefall ---
Großer Arber 1436 ------ -7.6 -7.8 -2.8 94 0.0 2 238 W 35 68 leichter Schneefall Sturmböen
Lahr 155 1020.2 1.0 -0.2 4.9 81 0.0 3 0 S 6 13 --- ---
Freudenstadt 797 ------ -4.1 -4.2 -0.3 90 0.0 6 23 W 15 36 leichter Schneefall ---
Stötten 734 1019.2 -3.1 -3.2 2.0 91 0.0 3 37 W 23 32 Schneegriesel ---
Augsburg 462 1018.6 -0.4 -1.3 4.0 79 0.0 0 0 W 16 28 --- ---
München-Flh. 444 1017.9 -0.2 -0.2 4.8 80 0.0 0 0 W 24 35 leichter Schneefall ---
Fürstenzell 476 1016.3 -0.4 -0.4 4.0 91 0.0 0 5 W 17 36 Schneefall ---
Feldberg/Schw. 1486 ------ -9.4 -9.4 -4.9 90 0.0 0 --- NW 19 32 Nebel ---
Konstanz 443 1020.4 -1.4 -2.1 4.4 89 0.0 3 3 NW 6 11 --- ---
Kempten 705 1020.2 -2.3 -2.3 1.9 74 0.0 2 26 W 6 23 --- ---
Oberstdorf 806 ------ -3.0 -3.6 2.1 83 0.0 2 66 S 9 16 Schneefall ---
Zugspitze 2960 ------ -18.9 -19.0 -12.9 83 ---- --- 435 NW 21 39 leichter Schneefall ---
Hohenpeißenberg 977 ------ -4.5 -4.6 0.1 78 0.0 1 62 NW 18 41 --- ---

                                                                                Tabelle: 19 : 00 UHR 

STATIONHÖHELUFTD.TEMP.T-MinT-MaxU%RR1RR12SSSDDFFFXWetter+WolkenBöen
UFS TW Ems 0 ------ --- --- --- --- ---- --- --- -- --- --- --- ---
UFS Deutsche Bucht 26 1017.9 5.1 2.5 5.7 71 ---- --- --- W 18 --- --- ---
Helgoland 4 1017.9 4.6 1.9 5.1 78 0.0 0 0 -- --- ---   ---
List/Sylt 26 1016.9 3.0 1.4 5.0 80 0.0 0 0 W 11 13 --- ---
Schleswig 43 1017.6 0.2 -2.8 3.8 99 0.0 0 0 W 9 15 --- ---
Leuchtturm Kiel 5 1017.3 2.0 -1.0 3.8 90 ---- --- --- SW 27 31 --- ---
Kiel 27 1017.7 0.8 -4.1 2.7 93 0.0 0 1 W 10 17 wolkenlos ---
Fehmarn 3 1017.2 3.4 0.3 3.6 74 0.0 0 0 W 26 36 --- ---
Arkona 42 1015.7 1.3 0.0 2.2 76 0.0 0 0 W 21 28 --- ---
Norderney 11 1018.6 3.5 3.1 5.1 86 0.0 1 0 SW 15 24 --- ---
Leuchtt. Alte Weser 32 1018.1 3.3 1.7 5.1 92 ---- --- --- SW 29 --- --- ---
Cuxhaven 5 1018.4 1.6 0.1 4.4 95 0.0 1 0 SW 11 18 --- ---
Hamburg-Flh 11 1018.7 0.3 -5.8 2.3 94 0.0 0 3 SW 8 11 bewölkt ---
Schwerin 59 1018.3 0.5 -4.3 1.0 92 0.0 0 1 W 16 23 --- ---
Rostock 4 1017.1 3.1 -0.2 3.4 80 0.0 0 0 W 30 45 --- ---
Greifswald 2 1016.5 0.1 -1.4 2.2 86 0.0 0 0 W 13 20 wolkenlos ---
Emden 0 1019.0 1.5 0.0 4.3 91 0.0 1 0 SW 8 13 --- ---
Bremen-Flh. 5 1019.5 -0.8 -4.0 3.4 90 0.0 0 0 SW 6 9 gering bewölkt ---
Lüchow 17 1019.2 1.3 -2.7 3.0 88 0.0 0 0 NW 6 19 --- ---
Marnitz 81 1018.5 0.4 -4.5 0.6 89 0.0 0 3 W 14 28 --- ---
Waren 70 1017.9 0.2 -2.5 1.0 89 0.0 0 0 W 11 25 --- ---
Neuruppin 38 1018.8 1.6 -2.4 1.6 82 0.0 0 --- W 9 23 --- ---
Angermünde 56 1017.9 -0.1 -3.5 0.9 86 0.0 0 1 W 18 27 --- ---
Münster/Osnabr.-Flh. 48 1020.6 -1.1 -3.6 4.0 84 0.0 0 0 SO 5 9 gering bewölkt ---
Hannover-Flh. 59 1020.0 1.4 -3.0 3.3 78 0.0 0 0 SW 10 17 stark bewölkt ---
Magdeburg 76 1020.0 1.5 -2.0 3.1 74 0.0 0 0 W 11 20 --- ---
Potsdam 81 1019.2 0.4 -1.8 1.5 82 0.0 0 0 W 17 31 Schneefall ---
Berlin-Tegel 37 1019.0 -0.3 -1.7 1.8 93 0.2 0 1 W 13 30 Schneeschauer ---
Berlin-Tempelhof 48 1019.1 0.9 -1.4 2.6 74 0.0 0 --- SW 13 23 --- ---
Berlin-Dahlem 51 1019.0 0.6 -1.4 2.1 --- ---- 0 0 W 14 --- stark bewölkt ---
Lindenberg 91 1019.3 -0.3 -1.7 1.5 74 0.0 0 0 SW 15 24 bedeckt ---
Düsseldorf-Flh. 45 1020.8 -0.8 -4.3 3.3 86 0.0 0 0 SO 4 13 gering bewölkt ---
Essen 150 1020.7 -0.9 -2.8 1.9 84 0.0 0 0 S 8 13 --- ---
Kahler Asten 839 ------ -6.1 -7.2 -3.3 87 0.0 0 25 S 15 17 --- ---
Bad Lippspringe 157 1021.5 -2.3 -2.3 2.6 92 0.0 0 0 - 0 9 --- ---
Fritzlar 174 1022.0 -2.3 -6.6 3.0 87 ---- 0 0 W 4 --- gering bewölkt ---
Brocken 1142 ------ -7.1 -9.1 -5.6 93 ---- 0 142 W 29 39 bewölkt ---
Leipzig-Flh. 142 1021.0 -1.0 -1.6 1.6 74 0.0 0 0 SW 16 21 gering bewölkt ---
Dresden-Flh. 227 1021.6 -2.6 -2.8 -0.4 77 0.0 0 0 SW 10 14 wolkenlos ---
Cottbus 69 1020.1 -1.6 -1.6 1.5 77 0.0 1 0 SW 11 16 --- ---
Görlitz 238 1021.6 -3.8 -4.4 0.0 78 0.0 0 0 SW 14 16 wolkenlos ---
Aachen 231 1020.3 0.0 -1.3 1.7 82 0.0 0 0 SO 9 13 --- ---
Nürburg 485 1021.0 -2.4 -2.9 0.7 81 0.0 0 0 SO 5 9 --- ---
Köln/Bonn-Flh. 92 1021.2 -0.7 -2.1 3.3 89 0.0 0 0 O 12 15 gering bewölkt ---
Gießen/Wettenberg 203 1021.7 -1.1 -2.8 3.8 72 0.0 0 0 NO 5 5 --- ---
Wasserkuppe 921 ------ -9.3 -9.3 -1.2 89 0.0 0 34 SW 4 7 gering bewölkt ---
Meiningen 450 1022.8 -3.8 -5.1 -0.2 71 0.0 0 2 NO 3 9 --- ---
Erfurt 316 1022.2 -3.8 -4.4 0.7 77 0.0 0 0 S 11 13 gering bewölkt ---
Gera 311 1022.0 -2.7 -2.8 0.5 71 0.0 0 0 SW 9 12 wolkenlos ---
Fichtelberg 1213 ------ -10.7 -10.8 -6.8 77 ---- --- --- NW 15 21 --- ---
Trier 265 1020.5 -1.0 -2.4 3.0 81 0.0 0 0 NO 11 15 --- ---
Hahn-Flh. 497 1020.9 -1.6 -3.8 0.5 77 0.0 0 0 SO 8 16 --- ---
Frankfurt/M-Flh. 112 1021.3 -1.2 -1.2 4.5 86 0.0 0 0 O 5 9 gering bewölkt ---
OF-Wetterpark 119 1021.4 -1.8 -1.8 4.6 91 0.0 0 0 SO 2 3 --- ---
Würzburg 268 1022.1 -0.7 -0.7 3.9 76 0.0 0 1 S 3 7 --- ---
Bamberg 239 1022.4 -3.0 -3.4 3.0 90 0.0 0 0 SO 2 5 --- ---
Hof 567 1023.2 -5.7 -5.8 -1.9 87 0.0 0 4 W 4 9 --- ---
Weiden 438 1022.5 -2.9 -2.9 1.1 73 0.0 0 0 NO 4 7 wolkenlos ---
Saarbrücken-Flh. 320 1020.7 -2.2 -2.4 2.8 78 0.0 0 0 O 8 11 gering bewölkt ---
Karlsruhe-Rheinst. 116 1020.6 -0.5 -0.5 4.0 86 0.0 0 0 O 7 9 --- ---
Mannheim 96 1020.9 1.2 0.8 4.5 78 0.0 0 0 NO 5 8 --- ---
Stuttgart-Flh. 371 1021.0 -0.8 -1.1 1.0 84 0.0 1 0 NO 5 9 gering bewölkt ---
Öhringen 276 1021.4 -0.8 -0.8 2.6 86 0.0 1 0 SO 4 7 --- ---
Nürnberg-Flh. 314 1022.2 -2.3 -2.3 2.7 85 0.0 0 0 O 2 4 gering bewölkt ---
Regensburg 366 1022.2 -2.4 -2.4 4.0 82 0.0 0 0 N 5 8 --- ---
Straubing 351 1022.5 -2.8 -2.8 2.6 89 0.0 0 0 S 9 11 --- ---
Großer Arber 1436 ------ -9.9 -10.1 -7.6 90 0.0 0 235 NW 14 19 Nebel ---
Lahr 155 1019.9 0.2 -0.8 4.5 84 0.0 0 0 NO 8 10 --- ---
Freudenstadt 797 ------ -4.9 -4.9 -1.7 95 0.0 0 22 O 7 14 --- ---
Stötten 734 1021.8 -4.5 -4.9 -1.0 93 0.0 0 37 O 13 17 --- ---
Augsburg 462 1021.6 -2.0 -3.0 2.1 88 0.0 0 0 O 7 10 --- ---
München-Flh. 444 1021.9 -1.8 -2.3 2.4 88 0.0 0 0 NO 8 11 gering bewölkt ---
Fürstenzell 476 1022.3 -1.7 -1.9 0.5 87 0.0 0 5 W 6 8 wolkenlos ---
Feldberg/Schw. 1486 ------ -9.3 -9.5 -7.9 88 0.0 0 --- O 34 40 --- ---
Konstanz 443 1019.5 0.1 -1.7 3.9 65 0.0 0 0 NO 10 23 --- ---
Kempten 705 1021.5 -5.8 -6.0 1.3 79 0.0 0 24 N 4 10 --- ---
Oberstdorf 806 ------ -7.3 -8.6 -0.4 79 0.0 0 64 S 9 16 --- ---
Zugspitze 2960 ------ -16.6 -19.4 -16.0 46 ---- --- --- O 26 28 --- ---
Hohenpeißenberg 977 ------ -5.0 -5.3 -0.2 78 0.0 0 60 NO 16 23 --- ---

 

  • Temperatur
  • Wetterzustand
  • Windrichtung und -geschwindigkeit
  • Luftdruck
  • relative Luftfeuchtigkeit
  • Sichtweite
  • Gesamtbedeckungsgrad
  • Niederschlag
  • Sonnenscheindauer

 Höhe:     m über NN
Luftd.:   auf Meereshöhe reduzierter Luftdruck in hPa
TEMP.:   Lufttemperatur in Grad Celsius
T-MIN:   Minimumtemperatur der Luft in 2m Höhe in Grad Celsius, von 18 UTC Vortag bis 06 UTC heute
T-MAX:  Maximumtemperatur der Luft in 2m Höhe in Grad Celsius, von 18 UTC Vortag bis 06 UTC heute
RR1:     Niederschlagsmenge, einstündig, mm ist gleich Liter pro
RR12:   Niederschlagsmenge, 12 stündig, 18 UTC Vortag bis 06 UTC heute in mm ist gleich Liter pro
SSS:     Gesamtschneehöhe
DD:      Windrichtung
FF:       Windgeschwindigkeit letztes 10-Minutenmittel in km/h
FX:       höchste Windspitze während der letzten Stunde in km/h
---:      Wert nicht vorhanden

 

2009-2019

Unwetterwarnungen

 

Radarbild          
aktueller Radarfilm Deutschland

Europa-Meteoalarm